createdAt,value
2019-05-12T00:02:00.977Z,79.70
2019-05-12T00:04:28.032Z,79.90
2019-05-12T00:06:54.383Z,80.20
2019-05-12T00:09:20.610Z,80.40
2019-05-12T00:11:48.447Z,80.50
2019-05-12T00:14:17.805Z,92.50
2019-05-12T00:16:44.359Z,86.70
2019-05-12T00:19:10.627Z,91.80
2019-05-12T00:21:39.588Z,91.20
2019-05-12T00:24:10.915Z,90.70
2019-05-12T00:26:41.133Z,81.20
2019-05-12T00:29:07.775Z,80.60
2019-05-12T00:31:34.080Z,80.30
2019-05-12T00:34:00.288Z,80.10
2019-05-12T00:36:29.047Z,79.90
2019-05-12T00:38:54.569Z,79.80
2019-05-12T00:41:20.717Z,79.70
2019-05-12T00:43:48.733Z,78.70
2019-05-12T00:46:14.964Z,79.90
2019-05-12T00:48:41.202Z,79.90
2019-05-12T00:51:07.766Z,80.00
2019-05-12T00:53:39.860Z,80.00
2019-05-12T00:56:02.221Z,79.80
2019-05-12T00:58:28.782Z,79.50
2019-05-12T01:00:54.963Z,79.30
2019-05-12T01:05:48.491Z,78.60
2019-05-12T01:08:14.957Z,79.50
2019-05-12T01:10:41.116Z,79.50
2019-05-12T01:13:08.590Z,79.70
2019-05-12T01:15:37.567Z,80.00
2019-05-12T01:18:03.643Z,80.20
2019-05-12T01:20:29.931Z,80.40
2019-05-12T01:22:58.008Z,80.50
2019-05-12T01:25:24.344Z,80.70
2019-05-12T01:27:50.486Z,80.70
2019-05-12T01:30:24.141Z,80.80
2019-05-12T01:32:50.295Z,80.70
2019-05-12T01:35:18.509Z,81.00
2019-05-12T01:37:44.828Z,80.80
2019-05-12T01:40:11.534Z,80.70
2019-05-12T01:42:38.216Z,80.60
2019-05-12T01:45:05.399Z,80.60
2019-05-12T01:47:31.572Z,80.60
2019-05-12T01:49:58.203Z,80.60
2019-05-12T01:52:24.542Z,80.60
2019-05-12T01:54:50.752Z,80.60
2019-05-12T01:57:18.838Z,80.40
2019-05-12T01:59:45.064Z,80.40
2019-05-12T02:02:11.178Z,80.40
2019-05-12T02:04:55.969Z,80.40
2019-05-12T02:07:22.189Z,80.40
2019-05-12T02:09:48.452Z,80.50
2019-05-12T02:12:14.639Z,80.80
2019-05-12T02:14:41.060Z,80.50
2019-05-12T02:17:08.786Z,80.90
2019-05-12T02:19:35.122Z,81.00
2019-05-12T02:22:01.334Z,81.20
2019-05-12T02:24:30.469Z,81.30
2019-05-12T02:26:57.768Z,81.50
2019-05-12T02:29:23.753Z,81.60
2019-05-12T02:31:50.342Z,81.40
2019-05-12T02:34:16.528Z,81.40
2019-05-12T02:36:44.876Z,81.50
2019-05-12T02:39:10.813Z,81.50
2019-05-12T02:41:37.151Z,81.70
2019-05-12T02:44:05.255Z,81.80
2019-05-12T02:46:34.607Z,81.90
2019-05-12T02:48:59.503Z,81.90
2019-05-12T02:51:26.082Z,82.00
2019-05-12T02:53:54.550Z,81.90
2019-05-12T02:56:25.618Z,82.10
2019-05-12T02:58:54.332Z,82.10
2019-05-12T03:01:24.021Z,82.00
2019-05-12T03:03:54.935Z,82.10
2019-05-12T03:06:25.168Z,82.20
2019-05-12T03:08:54.943Z,82.20
2019-05-12T03:11:19.939Z,82.30
2019-05-12T03:13:46.083Z,82.30
2019-05-12T03:16:14.941Z,82.20
2019-05-12T03:18:40.665Z,82.40
2019-05-12T03:21:06.964Z,82.30
2019-05-12T03:23:35.266Z,82.20
2019-05-12T03:26:05.246Z,82.30
2019-05-12T03:28:30.542Z,82.20
2019-05-12T03:30:57.975Z,82.20
2019-05-12T03:33:33.447Z,82.50
2019-05-12T03:36:00.196Z,82.00
2019-05-12T03:38:20.961Z,82.10
2019-05-12T03:40:47.102Z,82.00
2019-05-12T03:43:14.471Z,82.00
2019-05-12T03:45:41.147Z,81.90
2019-05-12T03:48:07.396Z,82.00
2019-05-12T03:50:35.396Z,81.80
2019-05-12T03:53:06.346Z,81.80
2019-05-12T03:55:36.096Z,81.70
2019-05-12T03:57:58.145Z,81.70
2019-05-12T04:00:24.895Z,81.60
2019-05-12T04:02:51.234Z,81.60
2019-05-12T04:05:17.379Z,81.70
2019-05-12T04:07:45.035Z,81.70
2019-05-12T04:10:11.565Z,81.80
2019-05-12T04:12:37.797Z,81.70
2019-05-12T04:15:05.466Z,81.80
2019-05-12T04:17:34.703Z,81.80
2019-05-12T04:19:59.935Z,81.80
2019-05-12T04:22:26.224Z,82.00
2019-05-12T04:24:55.143Z,82.20
2019-05-12T04:27:20.417Z,82.20
2019-05-12T04:29:46.640Z,82.20
2019-05-12T04:32:14.421Z,82.30
2019-05-12T04:34:41.160Z,82.30
2019-05-12T04:37:07.353Z,82.40
2019-05-12T04:39:34.188Z,82.30
2019-05-12T04:42:00.423Z,82.30
2019-05-12T04:44:26.618Z,82.10
2019-05-12T04:46:55.374Z,82.00
2019-05-12T04:49:24.692Z,82.00
2019-05-12T04:51:49.224Z,82.00
2019-05-12T04:54:15.671Z,82.00
2019-05-12T04:56:44.613Z,81.80
2019-05-12T04:59:10.101Z,81.70
2019-05-12T05:01:36.253Z,81.60
2019-05-12T05:04:05.333Z,81.70
2019-05-12T05:06:30.800Z,81.80
2019-05-12T05:08:57.020Z,81.80
2019-05-12T05:11:25.038Z,81.90
2019-05-12T05:13:51.298Z,81.90
2019-05-12T05:16:17.431Z,82.00
2019-05-12T05:18:44.083Z,82.10
2019-05-12T05:21:10.591Z,82.80
2019-05-12T05:23:37.140Z,82.10
2019-05-12T05:26:03.404Z,82.10
2019-05-12T05:28:29.615Z,82.80
2019-05-12T05:30:55.826Z,82.10
2019-05-12T05:33:23.809Z,82.40
2019-05-12T05:35:50.107Z,82.00
2019-05-12T05:38:20.484Z,81.90
2019-05-12T05:40:44.428Z,81.80
2019-05-12T05:43:13.077Z,81.80
2019-05-12T05:45:38.709Z,81.80
2019-05-12T05:48:09.795Z,82.10
2019-05-12T05:50:34.306Z,82.50
2019-05-12T05:53:00.585Z,82.80
2019-05-12T05:55:26.869Z,83.10
2019-05-12T05:57:53.580Z,83.10
2019-05-12T06:00:23.818Z,83.20
2019-05-12T06:02:49.054Z,83.00
2019-05-12T06:05:15.315Z,82.90
2019-05-12T06:07:44.261Z,82.70
2019-05-12T06:10:11.056Z,82.50
2019-05-12T06:12:40.432Z,82.50
2019-05-12T06:15:08.705Z,82.50
2019-05-12T06:17:34.187Z,82.30
2019-05-12T06:20:04.205Z,82.40
2019-05-12T06:22:29.884Z,82.20
2019-05-12T06:24:58.899Z,82.20
2019-05-12T06:27:24.435Z,82.30
2019-05-12T06:29:52.492Z,82.50
2019-05-12T06:32:18.793Z,82.50
2019-05-12T06:34:45.015Z,82.40
2019-05-12T06:37:12.327Z,82.40
2019-05-12T06:39:39.355Z,82.70
2019-05-12T06:42:12.641Z,82.70
2019-05-12T06:44:34.008Z,83.00
2019-05-12T06:47:03.488Z,83.50
2019-05-12T06:49:28.299Z,83.90
2019-05-12T06:52:01.567Z,84.00
2019-05-12T06:54:24.628Z,84.40
2019-05-12T06:56:57.862Z,84.90
2019-05-12T06:59:18.722Z,85.20
2019-05-12T07:01:45.184Z,85.60
2019-05-12T07:04:11.372Z,85.80
2019-05-12T07:06:37.580Z,85.70
2019-05-12T07:09:09.781Z,85.70
2019-05-12T07:11:42.467Z,85.90
2019-05-12T07:14:07.840Z,86.60
2019-05-12T07:16:33.985Z,87.90
2019-05-12T07:19:00.034Z,88.70
2019-05-12T07:21:27.396Z,88.60
2019-05-12T07:23:54.060Z,87.60
2019-05-12T07:26:20.569Z,81.90
2019-05-12T07:28:46.724Z,84.70
2019-05-12T07:31:14.222Z,84.20
2019-05-12T07:33:41.764Z,81.70
2019-05-12T07:36:09.449Z,80.40
2019-05-12T07:38:36.601Z,79.70
2019-05-12T07:41:08.807Z,79.50
2019-05-12T07:43:33.759Z,80.40
2019-05-12T07:46:07.174Z,81.40
2019-05-12T07:48:33.407Z,81.60
2019-05-12T07:51:00.782Z,81.30
2019-05-12T07:53:27.205Z,80.40
2019-05-12T07:55:53.725Z,80.50
2019-05-12T07:58:20.067Z,80.20
2019-05-12T08:00:46.285Z,80.70
2019-05-12T08:03:20.900Z,80.80
2019-05-12T08:05:40.574Z,81.20
2019-05-12T08:08:10.630Z,80.70
2019-05-12T08:10:34.920Z,79.20
2019-05-12T08:13:04.361Z,77.90
2019-05-12T08:15:30.662Z,76.80
2019-05-12T08:17:59.513Z,75.30
2019-05-12T08:20:25.243Z,74.60
2019-05-12T08:22:54.017Z,73.50
2019-05-12T08:25:27.112Z,72.10
2019-05-12T08:27:51.361Z,70.90
2019-05-12T08:30:30.376Z,70.60
2019-05-12T08:33:03.823Z,71.10
2019-05-12T08:35:29.022Z,70.40
2019-05-12T08:37:54.401Z,69.30
2019-05-12T08:40:20.658Z,68.70
2019-05-12T08:42:47.168Z,68.30
2019-05-12T08:45:22.439Z,68.80
2019-05-12T08:47:43.882Z,69.30
2019-05-12T08:50:09.968Z,69.80
2019-05-12T08:52:41.338Z,70.90
2019-05-12T08:55:04.782Z,71.80
2019-05-12T08:57:34.858Z,71.80
2019-05-12T09:02:27.727Z,71.60
2019-05-12T09:04:55.715Z,73.40
2019-05-12T09:07:24.268Z,73.00
2019-05-12T09:09:50.549Z,73.00
2019-05-12T09:12:17.319Z,71.80
2019-05-12T09:14:46.351Z,72.60
2019-05-12T09:17:13.513Z,75.30
2019-05-12T09:19:40.058Z,78.20
2019-05-12T09:27:05.002Z,75.90
2019-05-12T09:29:29.784Z,76.90
2019-05-12T09:31:59.370Z,76.20
2019-05-12T09:34:24.064Z,75.20
2019-05-12T09:36:51.993Z,72.80
2019-05-12T09:39:18.802Z,71.10
2019-05-12T09:41:50.614Z,69.50
2019-05-12T09:44:25.192Z,66.00
2019-05-12T09:46:48.261Z,62.90
2019-05-12T09:49:14.475Z,58.80
2019-05-12T09:51:41.619Z,57.10
2019-05-12T09:54:08.756Z,58.70
2019-05-12T09:56:34.918Z,57.30
2019-05-12T09:59:02.905Z,55.90
2019-05-12T10:01:34.474Z,55.40
2019-05-12T10:03:57.324Z,55.20
2019-05-12T10:06:24.576Z,56.60
2019-05-12T10:08:51.055Z,57.50
2019-05-12T10:11:20.710Z,56.80
2019-05-12T10:13:45.344Z,56.70
2019-05-12T10:16:13.331Z,57.50
2019-05-12T10:18:43.010Z,57.80
2019-05-12T10:21:10.020Z,57.20
2019-05-12T10:23:35.826Z,56.80
2019-05-12T10:26:09.908Z,54.60
2019-05-12T10:28:30.363Z,54.30
2019-05-12T10:30:57.013Z,52.30
2019-05-12T10:33:23.411Z,50.80
2019-05-12T10:35:49.556Z,50.00
2019-05-12T10:38:15.971Z,50.30
2019-05-12T10:40:44.246Z,50.10
2019-05-12T10:43:10.233Z,48.70
2019-05-12T10:45:36.449Z,48.40
2019-05-12T10:48:04.209Z,46.80
2019-05-12T10:50:30.458Z,47.20
2019-05-12T10:52:56.597Z,49.30
2019-05-12T10:55:23.943Z,49.60
2019-05-12T10:57:52.914Z,48.10
2019-05-12T11:00:24.544Z,45.00
2019-05-12T11:02:46.495Z,43.80
2019-05-12T11:05:21.113Z,43.50
2019-05-12T11:10:16.396Z,44.40
2019-05-12T11:12:39.593Z,44.60
2019-05-12T11:15:08.520Z,43.10
2019-05-12T11:17:40.190Z,43.60
2019-05-12T11:20:07.038Z,44.40
2019-05-12T11:22:33.400Z,44.30
2019-05-12T11:24:59.674Z,43.40
2019-05-12T11:27:25.814Z,42.00
2019-05-12T11:29:53.419Z,42.00
2019-05-12T11:32:19.796Z,42.30
2019-05-12T11:34:46.032Z,40.40
2019-05-12T11:37:13.887Z,40.90
2019-05-12T11:39:44.643Z,41.80
2019-05-12T11:42:08.300Z,42.60
2019-05-12T11:44:41.203Z,43.10
2019-05-12T11:47:07.425Z,42.90
2019-05-12T11:49:33.698Z,41.40
2019-05-12T11:52:01.125Z,40.20
2019-05-12T11:54:28.162Z,40.20
2019-05-12T11:56:54.517Z,40.60
2019-05-12T11:59:20.678Z,41.00
2019-05-12T12:01:50.468Z,41.20
2019-05-12T12:04:16.118Z,41.60
2019-05-12T12:06:43.836Z,41.00
2019-05-12T12:09:15.306Z,40.20
2019-05-12T12:11:38.627Z,40.20
2019-05-12T12:14:06.446Z,40.30
2019-05-12T12:16:34.102Z,40.20
2019-05-12T12:19:02.629Z,39.80
2019-05-12T12:21:31.776Z,39.60
2019-05-12T12:23:57.251Z,39.80
2019-05-12T12:26:30.272Z,40.00
2019-05-12T12:28:54.671Z,39.90
2019-05-12T12:31:20.875Z,40.10
2019-05-12T12:33:47.332Z,39.80
2019-05-12T12:36:14.534Z,39.40
2019-05-12T12:38:40.871Z,39.10
2019-05-12T12:41:07.065Z,39.50
2019-05-12T12:43:33.221Z,38.30
2019-05-12T12:46:21.289Z,38.90
2019-05-12T12:48:44.613Z,39.40
2019-05-12T12:51:10.893Z,39.20
2019-05-12T12:53:37.064Z,39.50
2019-05-12T12:56:04.381Z,39.60
2019-05-12T12:58:31.541Z,39.40
2019-05-12T13:00:59.163Z,39.30
2019-05-12T13:03:29.656Z,39.00
2019-05-12T13:05:54.243Z,38.80
2019-05-12T13:08:22.392Z,39.50
2019-05-12T13:10:51.400Z,39.60
2019-05-12T13:13:16.787Z,39.20
2019-05-12T13:15:44.383Z,39.30
2019-05-12T13:18:18.057Z,38.90
2019-05-12T13:20:38.856Z,38.80
2019-05-12T13:23:05.170Z,39.00
2019-05-12T13:25:33.524Z,38.90
2019-05-12T13:28:01.526Z,38.40
2019-05-12T13:30:27.889Z,38.40
2019-05-12T13:32:54.454Z,38.50
2019-05-12T13:35:20.621Z,38.50
2019-05-12T13:37:50.325Z,38.60
2019-05-12T13:40:15.373Z,38.70
2019-05-12T13:42:43.644Z,38.90
2019-05-12T13:45:13.165Z,39.10
2019-05-12T13:47:39.981Z,39.10
2019-05-12T13:50:06.857Z,39.40
2019-05-12T13:52:33.358Z,39.10
2019-05-12T13:55:00.142Z,38.90
2019-05-12T13:57:27.672Z,39.00
2019-05-12T14:00:04.194Z,39.20
2019-05-12T14:02:23.436Z,39.20
2019-05-12T14:04:50.047Z,39.20
2019-05-12T14:07:20.125Z,39.00
2019-05-12T14:09:44.430Z,39.10
2019-05-12T14:12:10.654Z,39.10
2019-05-12T14:14:36.794Z,39.10
2019-05-12T14:17:04.126Z,38.90
2019-05-12T14:19:35.420Z,39.00
2019-05-12T14:21:58.667Z,38.90
2019-05-12T14:24:24.887Z,38.60
2019-05-12T14:26:53.220Z,39.30
2019-05-12T14:29:20.433Z,38.50
2019-05-12T14:31:55.031Z,38.50
2019-05-12T14:34:18.888Z,38.50
2019-05-12T14:36:43.417Z,38.20
2019-05-12T14:39:10.426Z,38.20
2019-05-12T14:41:36.759Z,38.10
2019-05-12T14:44:03.665Z,38.20
2019-05-12T14:46:30.002Z,38.40
2019-05-12T14:48:56.203Z,38.40
2019-05-12T14:51:24.428Z,38.50
2019-05-12T14:53:50.766Z,38.50
2019-05-12T14:56:17.004Z,38.80
2019-05-12T14:58:44.211Z,38.80
2019-05-12T15:01:10.478Z,39.10
2019-05-12T15:03:36.735Z,39.30
2019-05-12T15:06:03.775Z,39.20
2019-05-12T15:08:36.110Z,39.50
2019-05-12T15:10:59.511Z,39.50
2019-05-12T15:13:25.711Z,39.50
2019-05-12T15:15:56.048Z,39.50
2019-05-12T15:18:20.023Z,39.60
2019-05-12T15:20:49.897Z,39.70
2019-05-12T15:23:14.566Z,39.80
2019-05-12T15:25:43.143Z,39.70
2019-05-12T15:28:08.842Z,39.40
2019-05-12T15:30:35.086Z,39.30
2019-05-12T15:33:01.204Z,39.10
2019-05-12T15:35:27.413Z,39.10
2019-05-12T15:37:55.158Z,39.10
2019-05-12T15:40:23.575Z,39.30
2019-05-12T15:42:49.589Z,39.30
2019-05-12T15:45:16.807Z,39.50
2019-05-12T15:47:44.595Z,39.60
2019-05-12T15:50:14.337Z,39.40
2019-05-12T15:52:42.405Z,39.40
2019-05-12T15:55:08.595Z,39.50
2019-05-12T15:57:34.754Z,39.50
2019-05-12T16:00:01.464Z,39.40
2019-05-12T16:02:27.594Z,39.40
2019-05-12T16:04:55.008Z,39.30
2019-05-12T16:07:21.272Z,39.20
2019-05-12T16:09:47.893Z,38.80
2019-05-12T16:12:21.948Z,39.60
2019-05-12T16:14:44.184Z,39.60
2019-05-12T16:17:10.339Z,39.70
2019-05-12T16:19:36.921Z,39.60
2019-05-12T16:22:03.693Z,39.60
2019-05-12T16:24:30.096Z,39.70
2019-05-12T16:26:56.236Z,39.50
2019-05-12T16:29:23.234Z,39.70
2019-05-12T16:31:50.088Z,39.50
2019-05-12T16:34:16.279Z,39.70
2019-05-12T16:36:47.528Z,39.40
2019-05-12T16:39:10.530Z,39.50
2019-05-12T16:41:36.736Z,39.50
2019-05-12T16:44:07.897Z,39.50
2019-05-12T16:46:33.880Z,39.80
2019-05-12T16:48:59.481Z,39.50
2019-05-12T16:51:25.751Z,39.30
2019-05-12T16:53:53.875Z,39.40
2019-05-12T16:56:27.960Z,40.00
2019-05-12T16:58:51.317Z,39.50
2019-05-12T17:01:19.408Z,39.60
2019-05-12T17:03:45.617Z,39.80
2019-05-12T17:06:13.718Z,39.70
2019-05-12T17:08:40.221Z,39.70
2019-05-12T17:11:22.979Z,40.00
2019-05-12T17:13:34.475Z,40.10
2019-05-12T17:16:00.692Z,40.30
2019-05-12T17:18:26.829Z,40.30
2019-05-12T17:20:54.526Z,40.30
2019-05-12T17:23:21.057Z,40.40
2019-05-12T17:25:47.574Z,40.30
2019-05-12T17:28:13.714Z,40.20
2019-05-12T17:30:40.238Z,40.10
2019-05-12T17:33:06.394Z,40.40
2019-05-12T17:35:34.975Z,40.50
2019-05-12T17:38:00.626Z,40.60
2019-05-12T17:40:26.781Z,41.20
2019-05-12T17:42:57.527Z,40.60
2019-05-12T17:45:23.367Z,40.60
2019-05-12T17:47:49.264Z,40.50
2019-05-12T17:50:15.402Z,40.40
2019-05-12T17:52:41.705Z,40.40
2019-05-12T17:55:10.699Z,40.40
2019-05-12T17:57:36.282Z,40.60
2019-05-12T18:00:10.551Z,40.70
2019-05-12T18:02:35.334Z,40.60
2019-05-12T18:05:10.069Z,40.60
2019-05-12T18:07:29.819Z,40.80
2019-05-12T18:10:00.480Z,40.70
2019-05-12T18:12:26.718Z,40.80
2019-05-12T18:14:52.477Z,40.80
2019-05-12T18:17:18.739Z,41.00
2019-05-12T18:19:44.949Z,41.50
2019-05-12T18:22:11.222Z,41.10
2019-05-12T18:24:40.887Z,41.20
2019-05-12T18:27:07.807Z,41.30
2019-05-12T18:29:33.522Z,41.40
2019-05-12T18:31:59.756Z,42.20
2019-05-12T18:34:26.011Z,41.80
2019-05-12T18:36:58.080Z,41.90
2019-05-12T18:39:20.730Z,42.00
2019-05-12T18:41:47.261Z,42.00
2019-05-12T18:44:15.927Z,42.20
2019-05-12T18:46:44.950Z,42.40
2019-05-12T18:49:12.838Z,42.40
2019-05-12T18:51:37.848Z,42.60
2019-05-12T18:54:10.071Z,42.70
2019-05-12T18:56:33.606Z,42.80
2019-05-12T18:59:05.112Z,42.90
2019-05-12T19:01:28.098Z,43.10
2019-05-12T19:03:54.906Z,43.20
2019-05-12T19:06:23.253Z,43.30
2019-05-12T19:08:49.426Z,43.50
2019-05-12T19:11:22.583Z,43.50
2019-05-12T19:13:51.651Z,43.70
2019-05-12T19:16:14.245Z,43.80
2019-05-12T19:18:40.554Z,43.90
2019-05-12T19:21:10.102Z,44.00
2019-05-12T19:23:37.644Z,44.10
2019-05-12T19:26:04.234Z,44.20
2019-05-12T19:28:30.834Z,44.20
2019-05-12T19:31:00.951Z,44.30
2019-05-12T19:33:25.879Z,44.30
2019-05-12T19:35:59.705Z,45.10
2019-05-12T19:38:20.884Z,44.50
2019-05-12T19:40:55.037Z,44.70
2019-05-12T19:43:15.182Z,44.80
2019-05-12T19:45:43.528Z,45.00
2019-05-12T19:48:23.213Z,45.00
2019-05-12T19:50:37.835Z,45.00
2019-05-12T19:53:04.313Z,45.20
2019-05-12T19:55:30.544Z,45.20
2019-05-12T19:57:56.741Z,45.40
2019-05-12T20:00:23.105Z,45.40
2019-05-12T20:02:49.412Z,45.40
2019-05-12T20:05:17.616Z,45.50
2019-05-12T20:07:44.718Z,45.50
2019-05-12T20:10:15.492Z,45.50
2019-05-12T20:12:39.843Z,45.60
2019-05-12T20:15:07.183Z,45.60
2019-05-12T20:17:34.057Z,45.60
2019-05-12T20:20:00.800Z,45.60
2019-05-12T20:22:26.992Z,45.50
2019-05-12T20:24:53.811Z,45.60
2019-05-12T20:27:21.957Z,45.60
2019-05-12T20:29:48.482Z,45.70
2019-05-12T20:32:14.616Z,45.60
2019-05-12T20:34:49.125Z,45.80
2019-05-12T20:37:14.302Z,45.80
2019-05-12T20:39:37.067Z,45.70
2019-05-12T20:42:05.204Z,45.70
2019-05-12T20:44:31.308Z,45.80
2019-05-12T20:47:01.461Z,45.70
2019-05-12T20:49:25.552Z,45.70
2019-05-12T20:51:54.984Z,45.50
2019-05-12T20:54:19.899Z,45.40
2019-05-12T20:56:46.357Z,45.30
2019-05-12T20:59:13.913Z,45.20
2019-05-12T21:01:40.608Z,45.20
2019-05-12T21:04:07.749Z,45.00
2019-05-12T21:06:41.746Z,45.00
2019-05-12T21:09:05.214Z,45.00
2019-05-12T21:11:33.723Z,44.90
2019-05-12T21:14:00.907Z,45.00
2019-05-12T21:16:34.721Z,45.10
2019-05-12T21:19:02.304Z,45.30
2019-05-12T21:21:25.174Z,45.40
2019-05-12T21:23:53.885Z,45.40
2019-05-12T21:26:19.940Z,45.50
2019-05-12T21:28:48.159Z,45.60
2019-05-12T21:31:14.362Z,45.60
2019-05-12T21:33:41.782Z,45.60
2019-05-12T21:36:08.363Z,46.20
2019-05-12T21:38:34.529Z,45.70
2019-05-12T21:41:02.231Z,45.70
2019-05-12T21:43:28.776Z,45.70
2019-05-12T21:45:54.989Z,45.80
2019-05-12T21:48:28.606Z,45.80
2019-05-12T21:50:49.245Z,45.80
2019-05-12T21:53:17.579Z,45.80
2019-05-12T21:55:44.383Z,45.60
2019-05-12T21:58:12.354Z,45.70
2019-05-12T22:00:50.482Z,46.30
2019-05-12T22:03:16.610Z,45.80
2019-05-12T22:05:51.462Z,45.80
2019-05-12T22:08:20.582Z,45.70
2019-05-12T22:10:40.934Z,45.70
2019-05-12T22:13:14.392Z,46.40
2019-05-12T22:15:35.570Z,45.80
2019-05-12T22:18:04.159Z,45.80
2019-05-12T22:20:34.350Z,45.80
2019-05-12T22:23:08.442Z,45.90
2019-05-12T22:25:29.701Z,45.90
2019-05-12T22:27:59.210Z,62.40
2019-05-12T22:30:24.563Z,49.40
2019-05-12T22:32:50.720Z,55.80
2019-05-12T22:35:22.133Z,60.20
2019-05-12T22:37:45.180Z,64.70
2019-05-12T22:40:17.315Z,67.60
2019-05-12T22:42:40.060Z,58.00
2019-05-12T22:45:06.511Z,75.60
2019-05-12T22:47:33.460Z,46.00
2019-05-12T22:50:00.086Z,46.00
2019-05-12T22:52:26.291Z,46.00
2019-05-12T22:54:53.808Z,46.00
2019-05-12T22:57:20.411Z,46.00
2019-05-12T22:59:46.549Z,46.00
2019-05-12T23:02:16.062Z,46.00
2019-05-12T23:04:40.812Z,46.10
2019-05-12T23:07:07.026Z,46.10
2019-05-12T23:09:34.072Z,46.10
2019-05-12T23:12:00.433Z,46.20
2019-05-12T23:14:26.570Z,46.20
2019-05-12T23:16:54.521Z,46.30
2019-05-12T23:19:20.834Z,46.40
2019-05-12T23:21:49.478Z,46.40
2019-05-12T23:24:15.177Z,47.10
2019-05-12T23:26:45.703Z,46.60
2019-05-12T23:29:09.444Z,46.60
2019-05-12T23:31:35.676Z,46.60
2019-05-12T23:34:06.545Z,46.70
2019-05-12T23:36:36.681Z,46.70
2019-05-12T23:39:02.868Z,46.70
2019-05-12T23:41:28.998Z,46.70
2019-05-12T23:43:55.448Z,46.50
2019-05-12T23:46:23.482Z,46.80
2019-05-12T23:48:49.716Z,46.80
2019-05-12T23:51:15.857Z,46.90
2019-05-12T23:53:42.471Z,46.80
2019-05-12T23:56:08.676Z,47.50
2019-05-12T23:58:34.905Z,47.00
